NSZ5431 EDDM-LEAL
Flight info
| Callsign | NSZ5431 |
|---|---|
| Flight time | N/A |
| Altitude | 35000 |
| Route | TURBU7S/26L TURBU Y107 TOBSO DCT BAKOR DCT SUMIR DCT PIDAD DCT TALEP DCT RARQU DCT BALEN DCT SORAS DCT NOMTO DCT NELAS DCT POS DCT OLUTO DCT ADX DCT OKITI DCT IBEBA DCT BAVER M603 GERVU |
| Aircraft | B738/M-SDE2E3FGHIRWXY/LB1 |
Departure
| Time | 2026-05-05 15:51 |
|---|---|
| Airport | Munich Airport (EDDM) |
Arrival
| Time | N/A |
|---|---|
| Airport | Alicante-Elche Miguel Hernández Airport (LEAL) |
| Time | Latitude | Longitude | Altitude | Speed | Heading |
|---|---|---|---|---|---|
| 2026-05-05 15:16 | 48.35609 | 11.77636 | 1484 ft | 0 kts | 264° |
| 2026-05-05 15:39 | 48.35610 | 11.77654 | 1472 ft | 4 kts | 264° |
| 2026-05-05 15:39 | 48.35613 | 11.77687 | 1484 ft | 4 kts | 266° |
| 2026-05-05 15:40 | 48.35609 | 11.77724 | 1470 ft | 4 kts | 308° |
| 2026-05-05 15:40 | 48.35591 | 11.77740 | 1484 ft | 4 kts | 353° |
| 2026-05-05 15:40 | 48.35572 | 11.77744 | 1474 ft | 0 kts | 353° |
| 2026-05-05 15:43 | 48.35586 | 11.77741 | 1484 ft | 5 kts | 353° |
| 2026-05-05 15:43 | 48.35632 | 11.77733 | 1474 ft | 9 kts | 353° |
| 2026-05-05 15:43 | 48.35701 | 11.77722 | 1484 ft | 11 kts | 354° |
| 2026-05-05 15:43 | 48.35782 | 11.77712 | 1472 ft | 12 kts | 356° |
| 2026-05-05 15:44 | 48.35872 | 11.77690 | 1484 ft | 14 kts | 351° |
| 2026-05-05 15:44 | 48.35964 | 11.77717 | 1478 ft | 14 kts | 51° |
| 2026-05-05 15:44 | 48.35981 | 11.77857 | 1484 ft | 13 kts | 84° |
| 2026-05-05 15:44 | 48.35992 | 11.78007 | 1484 ft | 18 kts | 84° |
| 2026-05-05 15:45 | 48.36009 | 11.78220 | 1478 ft | 22 kts | 81° |
| 2026-05-05 15:45 | 48.36025 | 11.78444 | 1481 ft | 21 kts | 85° |
| 2026-05-05 15:45 | 48.36043 | 11.78661 | 1484 ft | 21 kts | 83° |
| 2026-05-05 15:45 | 48.36059 | 11.78871 | 1480 ft | 20 kts | 83° |
| 2026-05-05 15:46 | 48.36075 | 11.79078 | 1484 ft | 21 kts | 83° |
| 2026-05-05 15:46 | 48.36093 | 11.79311 | 1472 ft | 24 kts | 84° |
| 2026-05-05 15:46 | 48.36111 | 11.79557 | 1484 ft | 23 kts | 84° |
| 2026-05-05 15:46 | 48.36130 | 11.79793 | 1484 ft | 22 kts | 83° |
| 2026-05-05 15:47 | 48.36148 | 11.80022 | 1484 ft | 22 kts | 84° |
| 2026-05-05 15:47 | 48.36159 | 11.80170 | 1471 ft | 21 kts | 84° |
| 2026-05-05 15:47 | 48.36183 | 11.80479 | 1478 ft | 25 kts | 83° |
| 2026-05-05 15:47 | 48.36204 | 11.80756 | 1484 ft | 28 kts | 83° |
| 2026-05-05 15:48 | 48.36226 | 11.81046 | 1479 ft | 27 kts | 83° |
| 2026-05-05 15:48 | 48.36247 | 11.81320 | 1484 ft | 26 kts | 83° |
| 2026-05-05 15:48 | 48.36265 | 11.81578 | 1472 ft | 24 kts | 85° |
| 2026-05-05 15:48 | 48.36285 | 11.81815 | 1480 ft | 18 kts | 83° |
| 2026-05-05 15:49 | 48.36331 | 11.81948 | 1478 ft | 14 kts | 41° |
| 2026-05-05 15:49 | 48.36417 | 11.82007 | 1476 ft | 14 kts | 359° |
| 2026-05-05 15:49 | 48.36524 | 11.81989 | 1474 ft | 18 kts | 353° |
| 2026-05-05 15:49 | 48.36651 | 11.81966 | 1484 ft | 12 kts | 351° |
| 2026-05-05 15:50 | 48.36674 | 11.81913 | 1484 ft | 7 kts | 261° |
| 2026-05-05 15:50 | 48.36664 | 11.81786 | 1476 ft | 31 kts | 264° |
| 2026-05-05 15:50 | 48.36612 | 11.81117 | 1484 ft | 96 kts | 263° |
| 2026-05-05 15:50 | 48.36513 | 11.79835 | 1480 ft | 150 kts | 263° |
| 2026-05-05 15:51 | 48.36377 | 11.78161 | 1959 ft | 161 kts | 262° |
| 2026-05-05 15:51 | 48.36217 | 11.76404 | 2521 ft | 183 kts | 266° |
| 2026-05-05 15:51 | 48.36067 | 11.74398 | 3045 ft | 194 kts | 266° |
| 2026-05-05 15:51 | 48.35784 | 11.72369 | 3557 ft | 211 kts | 243° |
| 2026-05-05 15:52 | 48.34616 | 11.70948 | 4025 ft | 229 kts | 197° |